Time;durP1;ratioP1;P1;durP2;ratioP2;P2;SDS_P1;SDS_P2;PMS_P1;PMS_P2;Temp;Humidity;BMP_temperature;BMP_pressure;BME280_temperature;BME280_humidity;BME280_pressure;Samples;Min_cycle;Max_cycle;Signal;HPM_P1;HPM_P2
2022/11/10 00:02:18;;;;;;;9.97;2.83;;;9.30;99.90;;;;;;5093661;28;20471;-70
2022/11/10 00:04:46;;;;;;;7.73;3.00;;;9.20;99.90;;;;;;5092755;28;20448;-71
2022/11/10 00:07:12;;;;;;;7.33;2.67;;;9.10;99.90;;;;;;5092288;28;20443;-70
2022/11/10 00:09:39;;;;;;;7.60;3.17;;;9.10;99.90;;;;;;5091947;28;20443;-70
2022/11/10 00:12:06;;;;;;;7.70;3.40;;;9.00;99.90;;;;;;5104446;28;20455;-70
2022/11/10 00:17:18;;;;;;;8.20;3.23;;;9.00;99.90;;;;;;5091774;28;20615;-70
2022/11/10 00:19:45;;;;;;;11.23;2.73;;;8.90;99.90;;;;;;5093029;28;20454;-71
2022/11/10 00:22:11;;;;;;;10.07;2.90;;;8.90;99.90;;;;;;5091561;28;20502;-70
2022/11/10 00:24:38;;;;;;;6.60;2.90;;;8.90;99.90;;;;;;5092508;28;20451;-70
2022/11/10 00:27:05;;;;;;;9.10;3.07;;;8.90;99.90;;;;;;5091913;28;20462;-70
2022/11/10 00:29:31;;;;;;;7.43;3.23;;;8.80;99.90;;;;;;5091776;28;20569;-70
2022/11/10 00:31:58;;;;;;;19.53;5.00;;;8.80;99.90;;;;;;5091340;28;20440;-70
2022/11/10 00:34:26;;;;;;;7.67;2.80;;;8.80;99.90;;;;;;5091763;28;20455;-70
2022/11/10 00:36:52;;;;;;;14.23;3.57;;;8.80;99.90;;;;;;5091697;28;21021;-71
2022/11/10 00:39:19;;;;;;;5.37;2.90;;;8.80;99.90;;;;;;5091791;28;20451;-70
2022/11/10 00:41:46;;;;;;;7.80;3.23;;;8.80;99.90;;;;;;5091163;28;20443;-70
2022/11/10 00:44:12;;;;;;;6.63;2.90;;;8.80;99.90;;;;;;5091337;28;20884;-71
2022/11/10 00:46:39;;;;;;;7.10;3.27;;;8.80;99.90;;;;;;5092019;28;20505;-70
2022/11/10 00:49:06;;;;;;;5.90;2.60;;;8.80;99.90;;;;;;5104793;28;20454;-71
2022/11/10 00:51:34;;;;;;;10.77;3.30;;;8.80;99.90;;;;;;5092753;28;20451;-71
2022/11/10 00:54:01;;;;;;;12.57;3.67;;;8.80;99.90;;;;;;5091424;28;20477;-70
2022/11/10 00:56:27;;;;;;;5.87;2.70;;;8.80;99.90;;;;;;5091721;28;20514;-71
2022/11/10 00:58:54;;;;;;;4.00;2.60;;;8.80;99.90;;;;;;5091647;28;20458;-70
2022/11/10 01:01:23;;;;;;;9.67;3.50;;;8.70;99.90;;;;;;5101326;28;20826;-70
2022/11/10 01:03:50;;;;;;;14.13;3.30;;;8.70;99.90;;;;;;5074465;28;20495;-70
2022/11/10 01:06:19;;;;;;;11.27;3.00;;;8.60;99.90;;;;;;5091801;28;20443;-70
2022/11/10 01:08:48;;;;;;;9.80;2.90;;;8.60;99.90;;;;;;5091631;28;20447;-70
2022/11/10 01:11:16;;;;;;;7.63;2.70;;;8.40;99.90;;;;;;5100113;28;20454;-70
2022/11/10 01:13:44;;;;;;;8.07;2.90;;;8.30;99.90;;;;;;5092759;28;20824;-70
2022/11/10 01:16:14;;;;;;;6.23;3.20;;;8.20;99.90;;;;;;5097703;28;20453;-71
2022/11/10 01:18:41;;;;;;;8.40;3.33;;;8.20;99.90;;;;;;5098851;28;20463;-70
2022/11/10 01:21:09;;;;;;;7.23;3.13;;;8.20;99.90;;;;;;5091271;28;20499;-70
2022/11/10 01:23:36;;;;;;;8.57;3.53;;;8.10;99.90;;;;;;5091313;28;20471;-70
2022/11/10 01:26:06;;;;;;;3.40;2.83;;;8.10;99.90;;;;;;5091269;28;20455;-71
2022/11/10 01:28:34;;;;;;;6.40;2.63;;;8.10;99.90;;;;;;5092547;28;20453;-70
2022/11/10 01:31:03;;;;;;;16.27;4.07;;;8.00;99.90;;;;;;5095890;28;20450;-70
2022/11/10 01:33:30;;;;;;;4.27;2.73;;;8.10;99.90;;;;;;5095842;28;20471;-70
2022/11/10 01:35:57;;;;;;;9.63;3.43;;;8.00;99.90;;;;;;5095085;28;20804;-70
2022/11/10 01:38:26;;;;;;;7.50;3.10;;;8.00;99.90;;;;;;5094893;28;20984;-70
2022/11/10 01:40:52;;;;;;;4.73;2.90;;;8.00;99.90;;;;;;5094439;28;20447;-70
2022/11/10 01:43:20;;;;;;;8.10;3.30;;;8.00;99.90;;;;;;5094994;28;20478;-70
2022/11/10 01:45:51;;;;;;;9.83;2.90;;;7.90;99.90;;;;;;5075107;28;20450;-70
2022/11/10 01:48:21;;;;;;;7.70;3.43;;;7.90;99.90;;;;;;5077610;28;20453;-71
2022/11/10 01:50:49;;;;;;;10.30;3.17;;;8.00;99.90;;;;;;5094613;28;20480;-70
2022/11/10 01:53:22;;;;;;;9.03;2.90;;;8.00;99.90;;;;;;5098290;28;20564;-70
2022/11/10 01:55:50;;;;;;;15.37;3.20;;;8.00;99.90;;;;;;5095060;28;20766;-70
2022/11/10 01:58:22;;;;;;;19.07;3.07;;;8.10;99.90;;;;;;5094854;28;20511;-70
2022/11/10 02:00:49;;;;;;;9.93;3.27;;;8.10;99.90;;;;;;5078958;28;20456;-70
2022/11/10 02:03:23;;;;;;;12.10;3.23;;;8.10;99.90;;;;;;5093941;28;20471;-70
2022/11/10 02:05:50;;;;;;;7.30;2.97;;;8.10;99.90;;;;;;5094777;28;20438;-70
2022/11/10 02:08:19;;;;;;;7.10;2.90;;;8.10;99.90;;;;;;5094755;28;20450;-70
2022/11/10 02:10:45;;;;;;;8.93;2.97;;;8.10;99.90;;;;;;5106190;28;20446;-70
2022/11/10 02:13:12;;;;;;;10.13;3.30;;;8.10;99.90;;;;;;5115208;28;20470;-70
2022/11/10 02:15:40;;;;;;;7.30;3.23;;;8.10;99.90;;;;;;5114457;28;20976;-70
2022/11/10 02:18:07;;;;;;;13.13;3.40;;;8.10;99.90;;;;;;5077577;28;20482;-70
2022/11/10 02:20:33;;;;;;;7.73;3.47;;;8.10;99.90;;;;;;5093972;28;20454;-70
2022/11/10 02:23:12;;;;;;;8.63;3.37;;;8.10;99.90;;;;;;5094390;28;20490;-71
2022/11/10 02:25:39;;;;;;;14.30;3.70;;;8.10;99.90;;;;;;5095474;28;20459;-70
2022/11/10 02:28:06;;;;;;;13.30;3.00;;;8.10;99.90;;;;;;5094064;28;20820;-70
2022/11/10 02:30:33;;;;;;;7.23;3.10;;;8.00;99.90;;;;;;5105149;28;20461;-72
2022/11/10 02:32:59;;;;;;;10.00;3.57;;;8.00;99.90;;;;;;5093970;28;20474;-72
2022/11/10 02:35:26;;;;;;;16.70;3.80;;;8.00;99.90;;;;;;5094118;28;20442;-72
2022/11/10 02:37:53;;;;;;;15.50;3.20;;;7.90;99.90;;;;;;5094321;28;20481;-72
2022/11/10 02:40:21;;;;;;;15.33;3.43;;;7.90;99.90;;;;;;5093332;28;20455;-70
2022/11/10 02:42:47;;;;;;;6.67;2.93;;;7.90;99.90;;;;;;5093473;28;20478;-70
2022/11/10 02:45:14;;;;;;;7.53;3.23;;;7.90;99.90;;;;;;5094195;28;20771;-70
2022/11/10 02:47:41;;;;;;;4.20;3.00;;;7.80;99.90;;;;;;5093844;28;20462;-70
2022/11/10 02:50:08;;;;;;;11.50;3.13;;;7.80;99.90;;;;;;5093337;28;20452;-71
2022/11/10 02:52:35;;;;;;;20.23;3.97;;;7.80;99.90;;;;;;5111531;28;20478;-71
2022/11/10 02:55:01;;;;;;;7.67;3.20;;;7.70;99.90;;;;;;5114025;28;20466;-71
2022/11/10 02:57:29;;;;;;;11.40;3.00;;;7.80;99.90;;;;;;5114582;28;20496;-71
2022/11/10 02:59:56;;;;;;;8.00;3.37;;;7.70;99.90;;;;;;5097166;28;20454;-71
2022/11/10 03:02:23;;;;;;;17.03;3.97;;;7.70;99.90;;;;;;5093455;28;20478;-71
2022/11/10 03:04:49;;;;;;;9.17;3.30;;;7.70;99.90;;;;;;5093610;28;20446;-71
2022/11/10 03:07:16;;;;;;;15.77;3.17;;;7.70;99.90;;;;;;5093400;28;20492;-71
2022/11/10 03:09:43;;;;;;;12.17;3.23;;;7.70;99.90;;;;;;5092782;28;20466;-71
2022/11/10 03:12:09;;;;;;;7.13;3.17;;;7.60;99.90;;;;;;5093335;28;20973;-71
2022/11/10 03:14:37;;;;;;;10.63;3.20;;;7.60;99.90;;;;;;5094875;28;20461;-71
2022/11/10 03:17:04;;;;;;;6.63;2.90;;;7.50;99.90;;;;;;5096647;28;20484;-71
2022/11/10 03:19:31;;;;;;;8.57;3.70;;;7.50;99.90;;;;;;5092942;28;20458;-71
2022/11/10 03:21:57;;;;;;;11.00;3.10;;;7.50;99.90;;;;;;5093813;28;20455;-71
2022/11/10 03:24:24;;;;;;;13.00;3.30;;;7.40;99.90;;;;;;5092729;28;20458;-71
2022/11/10 03:26:51;;;;;;;5.60;3.30;;;7.40;99.90;;;;;;5093611;28;20453;-71
2022/11/10 03:29:17;;;;;;;6.47;3.60;;;7.30;99.90;;;;;;5092956;28;20488;-71
2022/11/10 03:31:45;;;;;;;7.73;3.00;;;7.30;99.90;;;;;;5102482;28;20461;-71
2022/11/10 03:34:12;;;;;;;6.50;3.30;;;7.20;99.90;;;;;;5102013;28;20478;-71
2022/11/10 03:36:39;;;;;;;10.50;3.43;;;7.20;99.90;;;;;;5092905;28;20452;-71
2022/11/10 03:39:05;;;;;;;9.00;3.40;;;7.20;99.90;;;;;;5097792;28;20457;-71
2022/11/10 03:41:32;;;;;;;14.67;3.10;;;7.20;99.90;;;;;;5109454;28;20449;-71
2022/11/10 03:43:59;;;;;;;8.00;3.60;;;7.10;99.90;;;;;;5092834;28;20479;-71
2022/11/10 03:46:25;;;;;;;5.00;2.80;;;7.10;99.90;;;;;;5092912;28;20454;-71
2022/11/10 03:48:53;;;;;;;9.10;4.20;;;7.10;99.90;;;;;;5092453;28;20877;-71
2022/11/10 03:51:21;;;;;;;8.10;3.80;;;7.10;99.90;;;;;;5091436;28;20451;-71
2022/11/10 03:53:48;;;;;;;12.63;3.73;;;7.00;99.90;;;;;;5097151;28;20553;-71
2022/11/10 03:56:14;;;;;;;4.73;2.87;;;7.00;99.90;;;;;;5091999;28;20462;-71
2022/11/10 03:58:41;;;;;;;11.27;3.73;;;6.90;99.90;;;;;;5092556;28;20478;-71
2022/11/10 04:01:08;;;;;;;9.30;3.43;;;6.90;99.90;;;;;;5095473;28;20483;-71
2022/11/10 04:03:35;;;;;;;5.37;3.10;;;6.90;99.90;;;;;;5097255;28;20900;-71
2022/11/10 04:08:59;;;;;;;8.53;3.60;;;6.90;99.90;;;;;;5092438;28;20517;-72
2022/11/10 04:16:54;;;;;;;9.10;3.17;;;6.70;99.90;;;;;;5092042;28;20506;-71
2022/11/10 04:19:21;;;;;;;7.53;3.57;;;6.70;99.90;;;;;;5092164;28;20464;-71
2022/11/10 04:21:49;;;;;;;6.47;3.20;;;6.70;99.90;;;;;;5092536;28;20450;-71
2022/11/10 04:24:17;;;;;;;10.27;3.67;;;6.70;99.90;;;;;;5091743;28;20482;-71
2022/11/10 04:26:46;;;;;;;5.70;3.40;;;6.60;99.90;;;;;;5092282;28;20455;-71
2022/11/10 04:29:13;;;;;;;13.33;3.47;;;6.70;99.90;;;;;;5091933;28;20464;-72
2022/11/10 04:31:41;;;;;;;12.30;3.60;;;6.80;99.90;;;;;;5091625;28;20446;-72
2022/11/10 04:34:10;;;;;;;6.23;2.93;;;6.90;99.90;;;;;;5091930;28;20467;-71
2022/11/10 04:36:38;;;;;;;10.80;3.20;;;7.00;99.90;;;;;;5091783;28;20457;-71
2022/11/10 04:39:07;;;;;;;10.33;3.50;;;7.00;99.90;;;;;;5101354;28;20475;-72
2022/11/10 04:41:34;;;;;;;13.77;3.73;;;7.10;99.90;;;;;;5110879;28;20454;-72
2022/11/10 04:44:01;;;;;;;7.67;3.60;;;7.20;99.90;;;;;;5075693;28;20468;-72
2022/11/10 04:46:30;;;;;;;9.77;3.10;;;7.20;99.90;;;;;;5091684;28;20462;-71
2022/11/10 04:48:58;;;;;;;12.00;3.60;;;7.30;99.90;;;;;;5091825;28;20446;-72
2022/11/10 04:51:27;;;;;;;9.23;3.73;;;7.30;99.90;;;;;;5091529;28;20954;-71
2022/11/10 04:53:53;;;;;;;11.60;3.30;;;7.30;99.90;;;;;;5091410;28;21115;-71
2022/11/10 04:56:23;;;;;;;7.40;2.63;;;7.30;99.90;;;;;;5091556;28;20881;-71
2022/11/10 04:58:50;;;;;;;6.20;3.10;;;7.20;99.90;;;;;;5091647;28;20486;-71
2022/11/10 05:01:20;;;;;;;6.67;3.47;;;7.20;99.90;;;;;;5091522;28;20450;-71
2022/11/10 05:03:48;;;;;;;8.60;3.10;;;7.10;99.90;;;;;;5106236;28;20899;-72
2022/11/10 05:06:15;;;;;;;11.83;3.50;;;7.10;99.90;;;;;;5097942;28;20953;-72
2022/11/10 05:08:43;;;;;;;7.20;2.80;;;7.00;99.90;;;;;;5097425;28;20444;-72
2022/11/10 05:11:10;;;;;;;7.97;3.30;;;7.00;99.90;;;;;;5097428;28;20445;-72
2022/11/10 05:13:38;;;;;;;12.23;3.23;;;6.90;99.90;;;;;;5097517;28;20512;-71
2022/11/10 05:16:06;;;;;;;8.67;3.40;;;6.90;99.90;;;;;;5097579;28;20450;-72
2022/11/10 05:18:32;;;;;;;14.67;3.97;;;6.90;99.90;;;;;;5098460;28;20530;-71
2022/11/10 05:20:59;;;;;;;9.80;3.70;;;6.90;99.90;;;;;;5097694;28;20446;-71
2022/11/10 05:23:38;;;;;;;8.20;3.70;;;6.90;99.90;;;;;;5097785;28;20470;-71
2022/11/10 05:26:05;;;;;;;10.70;3.53;;;6.80;99.90;;;;;;5097882;28;20453;-71
2022/11/10 05:28:31;;;;;;;15.97;3.60;;;6.90;99.90;;;;;;5098028;28;20457;-71
2022/11/10 05:30:59;;;;;;;9.20;3.00;;;6.80;99.90;;;;;;5097488;28;20445;-71
2022/11/10 05:33:26;;;;;;;9.87;3.70;;;6.80;99.90;;;;;;5097755;28;20463;-72
2022/11/10 05:35:53;;;;;;;16.37;5.37;;;6.70;99.90;;;;;;5097324;28;21032;-71
2022/11/10 05:38:19;;;;;;;13.57;4.53;;;6.70;99.90;;;;;;5098510;28;20828;-71
2022/11/10 05:40:46;;;;;;;10.17;3.93;;;6.70;99.90;;;;;;5097594;28;20754;-71
2022/11/10 05:43:13;;;;;;;5.00;3.33;;;6.70;99.90;;;;;;5097799;28;20473;-71
2022/11/10 05:45:39;;;;;;;11.37;3.93;;;6.70;99.90;;;;;;5097843;28;20449;-71
2022/11/10 05:48:08;;;;;;;6.20;4.27;;;6.60;99.90;;;;;;5097846;28;20444;-71
2022/11/10 05:50:34;;;;;;;15.73;4.53;;;6.60;99.90;;;;;;5097376;28;20459;-72
2022/11/10 05:53:01;;;;;;;7.30;3.97;;;6.60;99.90;;;;;;5097883;28;20473;-71
2022/11/10 05:55:28;;;;;;;7.23;4.30;;;6.50;99.90;;;;;;5097328;28;20457;-72
2022/11/10 05:57:56;;;;;;;8.87;3.73;;;6.50;99.90;;;;;;5097755;28;20495;-71
2022/11/10 06:00:25;;;;;;;11.93;4.37;;;6.50;99.90;;;;;;5098034;28;20447;-71
2022/11/10 06:03:03;;;;;;;7.53;3.87;;;6.50;99.90;;;;;;5097574;28;21016;-71
2022/11/10 06:05:33;;;;;;;6.77;3.93;;;6.50;99.90;;;;;;5097440;28;20971;-72
2022/11/10 06:08:00;;;;;;;8.53;4.00;;;6.60;99.90;;;;;;5098070;28;20445;-71
2022/11/10 06:10:27;;;;;;;8.13;4.50;;;6.50;99.90;;;;;;5097851;28;20820;-71
2022/11/10 06:12:55;;;;;;;9.67;3.73;;;6.50;99.90;;;;;;5097727;28;20498;-71
2022/11/10 06:15:22;;;;;;;11.07;3.90;;;6.50;99.90;;;;;;5093826;28;20454;-71
2022/11/10 06:17:49;;;;;;;9.77;4.43;;;6.40;99.90;;;;;;5094025;28;20485;-71
2022/11/10 06:20:17;;;;;;;10.30;4.37;;;6.40;99.90;;;;;;5094340;28;20824;-72
2022/11/10 06:22:57;;;;;;;15.07;4.37;;;6.30;99.90;;;;;;5093931;28;20501;-72
2022/11/10 06:25:24;;;;;;;10.40;4.17;;;6.40;99.90;;;;;;5094669;28;20770;-72
2022/11/10 06:27:50;;;;;;;10.67;4.63;;;6.30;99.90;;;;;;5094398;28;20491;-72
2022/11/10 06:30:17;;;;;;;10.90;4.10;;;6.30;99.90;;;;;;5094264;28;20444;-72
2022/11/10 06:32:44;;;;;;;11.03;4.13;;;6.30;99.90;;;;;;5093456;28;20476;-72
2022/11/10 06:35:11;;;;;;;16.63;5.00;;;6.20;99.90;;;;;;5094053;28;20491;-72
2022/11/10 06:37:38;;;;;;;10.10;4.87;;;6.20;99.90;;;;;;5094023;28;20510;-71
2022/11/10 06:40:09;;;;;;;10.47;4.57;;;6.20;99.90;;;;;;5094189;28;20493;-71
2022/11/10 06:42:36;;;;;;;15.53;5.20;;;6.20;99.90;;;;;;5093703;28;20507;-71
2022/11/10 06:45:03;;;;;;;15.40;5.10;;;6.20;99.90;;;;;;5093549;28;20450;-71
2022/11/10 06:47:30;;;;;;;10.93;6.20;;;6.30;99.90;;;;;;5094015;28;20561;-71
2022/11/10 06:49:57;;;;;;;9.90;4.63;;;6.40;99.90;;;;;;5093339;28;20449;-71
2022/11/10 06:52:23;;;;;;;10.20;4.30;;;6.50;99.90;;;;;;5093023;28;20488;-70
2022/11/10 06:54:50;;;;;;;14.47;5.10;;;6.70;99.90;;;;;;5093397;28;20469;-70
2022/11/10 06:57:18;;;;;;;8.33;4.23;;;6.90;99.90;;;;;;5093873;28;20507;-69
2022/11/10 06:59:45;;;;;;;10.17;4.63;;;6.90;99.90;;;;;;5094058;28;20483;-70
2022/11/10 07:02:14;;;;;;;12.60;4.70;;;6.90;99.90;;;;;;5093369;28;20466;-70
2022/11/10 07:04:42;;;;;;;11.50;4.23;;;6.80;99.90;;;;;;5093460;28;20457;-70
2022/11/10 07:07:09;;;;;;;10.40;4.10;;;6.70;99.90;;;;;;5093266;28;20533;-70
2022/11/10 07:09:36;;;;;;;9.70;3.97;;;6.60;99.90;;;;;;5093147;28;20453;-70
2022/11/10 07:12:03;;;;;;;12.30;5.30;;;6.90;99.90;;;;;;5092826;28;20465;-70
2022/11/10 07:14:31;;;;;;;10.17;4.60;;;7.30;99.90;;;;;;5093414;28;20459;-70
2022/11/10 07:16:58;;;;;;;12.33;4.30;;;8.00;99.90;;;;;;5093147;28;20461;-70
2022/11/10 07:19:25;;;;;;;8.20;3.90;;;8.70;99.90;;;;;;5091253;28;20479;-70
2022/11/10 07:21:51;;;;;;;7.00;3.90;;;9.20;99.90;;;;;;5091911;28;20462;-70
2022/11/10 07:24:18;;;;;;;7.40;4.00;;;9.70;99.90;;;;;;5092188;28;20473;-70
2022/11/10 07:26:45;;;;;;;11.50;3.80;;;10.00;99.90;;;;;;5090471;28;20444;-70
2022/11/10 07:29:12;;;;;;;8.83;3.50;;;10.40;99.90;;;;;;5086795;28;20996;-70
2022/11/10 07:31:40;;;;;;;7.37;4.40;;;10.80;99.90;;;;;;5088285;28;20956;-70
2022/11/10 07:34:06;;;;;;;17.80;5.30;;;10.80;99.90;;;;;;5087906;28;20475;-70
2022/11/10 07:36:33;;;;;;;8.13;4.77;;;10.50;99.90;;;;;;5087822;28;20452;-70
2022/11/10 07:39:00;;;;;;;6.20;4.87;;;10.50;99.90;;;;;;5088134;28;20494;-70
2022/11/10 07:41:26;;;;;;;7.23;4.90;;;10.80;99.90;;;;;;5085784;28;21207;-70
2022/11/10 07:43:53;;;;;;;9.27;5.10;;;11.50;99.90;;;;;;5087820;28;20494;-70
2022/11/10 07:46:20;;;;;;;11.93;5.00;;;12.20;99.90;;;;;;5088855;28;20452;-70
2022/11/10 07:48:48;;;;;;;7.00;4.67;;;12.80;99.90;;;;;;5088025;28;20466;-69
2022/11/10 07:51:14;;;;;;;9.50;4.87;;;13.50;99.90;;;;;;5088149;28;20444;-70
2022/11/10 07:53:42;;;;;;;16.37;3.40;;;14.00;99.90;;;;;;5087071;28;20588;-78
2022/11/10 07:56:09;;;;;;;8.57;4.00;;;15.00;99.90;;;;;;5087465;28;20594;-75
2022/11/10 07:58:36;;;;;;;8.30;4.40;;;15.70;99.90;;;;;;5090153;28;20490;-76
2022/11/10 08:01:02;;;;;;;8.73;4.00;;;16.20;99.90;;;;;;5085782;28;20459;-74
2022/11/10 08:03:29;;;;;;;9.57;4.03;;;16.40;99.90;;;;;;5087039;28;20479;-77
2022/11/10 08:05:57;;;;;;;9.30;4.40;;;16.50;99.90;;;;;;5087594;28;20444;-71
2022/11/10 08:08:24;;;;;;;7.30;5.07;;;16.50;99.90;;;;;;5087994;28;20455;-71
2022/11/10 08:10:50;;;;;;;8.40;4.63;;;15.90;99.90;;;;;;5088963;28;20889;-71
2022/11/10 08:13:17;;;;;;;9.27;5.03;;;15.50;99.90;;;;;;5088670;28;20475;-71
2022/11/10 08:15:44;;;;;;;9.73;5.03;;;15.00;99.90;;;;;;5088337;28;20443;-71
2022/11/10 08:18:16;;;;;;;8.47;4.87;;;14.60;99.90;;;;;;5087963;28;20483;-71
2022/11/10 08:20:43;;;;;;;10.53;5.90;;;14.00;99.90;;;;;;5088878;28;20862;-71
2022/11/10 08:23:11;;;;;;;10.83;4.70;;;13.50;99.90;;;;;;5087480;28;20474;-70
2022/11/10 08:25:39;;;;;;;12.47;5.73;;;13.30;99.90;;;;;;5088165;28;20458;-70
2022/11/10 08:28:07;;;;;;;12.10;5.93;;;13.20;99.90;;;;;;5087447;28;20467;-70
2022/11/10 08:30:35;;;;;;;10.47;5.80;;;13.30;99.90;;;;;;5086986;28;20450;-70
2022/11/10 08:33:04;;;;;;;9.67;5.20;;;13.30;99.90;;;;;;5086888;28;20504;-70
2022/11/10 08:35:34;;;;;;;16.20;5.30;;;13.30;99.90;;;;;;5091122;28;20479;-70
2022/11/10 08:38:07;;;;;;;14.53;7.83;;;13.30;99.90;;;;;;5089507;28;20455;-70
2022/11/10 08:40:35;;;;;;;10.53;6.10;;;13.40;99.90;;;;;;5091563;28;20861;-70
2022/11/10 08:43:06;;;;;;;17.97;8.83;;;13.50;99.90;;;;;;5091644;28;20467;-70
2022/11/10 08:45:33;;;;;;;11.00;6.80;;;13.60;99.90;;;;;;5091831;28;20483;-71
2022/11/10 08:48:00;;;;;;;23.67;9.50;;;13.80;99.90;;;;;;5091387;28;20447;-71
2022/11/10 08:50:28;;;;;;;32.97;11.93;;;14.00;99.90;;;;;;5091376;28;20978;-70
2022/11/10 08:52:54;;;;;;;47.13;17.97;;;14.30;99.90;;;;;;5091794;28;20838;-71
2022/11/10 08:55:21;;;;;;;30.70;12.70;;;14.30;99.90;;;;;;5091768;28;20451;-70
2022/11/10 08:57:49;;;;;;;35.90;14.20;;;14.30;99.90;;;;;;5091212;28;20451;-70
2022/11/10 09:00:17;;;;;;;10.27;6.60;;;14.40;99.90;;;;;;5091562;28;20480;-70
2022/11/10 09:02:44;;;;;;;10.80;5.50;;;14.30;99.90;;;;;;5091647;28;20502;-70
2022/11/10 09:05:11;;;;;;;13.53;6.50;;;14.20;99.90;;;;;;5091366;28;20444;-70
2022/11/10 09:07:43;;;;;;;20.80;6.20;;;14.20;99.90;;;;;;5091161;28;20448;-70
2022/11/10 09:10:10;;;;;;;16.87;6.90;;;14.30;99.90;;;;;;5091354;28;20494;-70
2022/11/10 09:12:37;;;;;;;9.70;6.17;;;14.30;99.90;;;;;;5091266;28;20463;-70
2022/11/10 09:15:06;;;;;;;18.60;6.50;;;14.10;99.90;;;;;;5091654;28;20448;-70
2022/11/10 09:17:33;;;;;;;13.13;5.80;;;14.10;99.90;;;;;;5091105;28;20538;-70
2022/11/10 09:20:00;;;;;;;14.70;5.90;;;14.30;99.90;;;;;;5091240;28;20525;-70
2022/11/10 09:22:27;;;;;;;15.30;5.63;;;14.60;99.90;;;;;;5091059;28;20463;-71
2022/11/10 09:24:53;;;;;;;13.30;5.10;;;14.80;99.90;;;;;;5091599;28;20849;-70
2022/11/10 09:27:20;;;;;;;19.10;5.43;;;14.90;99.90;;;;;;5091130;28;20496;-70
2022/11/10 09:29:47;;;;;;;19.70;5.97;;;14.80;99.90;;;;;;5091247;28;20443;-70
2022/11/10 09:32:15;;;;;;;18.00;7.90;;;14.70;99.90;;;;;;5090807;28;20470;-70
2022/11/10 09:34:42;;;;;;;10.97;6.77;;;14.60;99.90;;;;;;5091207;28;20443;-71
2022/11/10 09:37:09;;;;;;;17.40;7.30;;;14.50;99.90;;;;;;5090897;28;20978;-71
2022/11/10 09:39:36;;;;;;;11.20;6.87;;;14.70;99.90;;;;;;5090732;28;21010;-71
2022/11/10 09:42:05;;;;;;;18.93;7.23;;;14.70;99.90;;;;;;5091068;28;20451;-71
2022/11/10 09:44:35;;;;;;;14.10;7.10;;;14.90;99.90;;;;;;5091117;28;20935;-70
2022/11/10 09:47:07;;;;;;;17.37;7.40;;;15.20;99.90;;;;;;5090716;28;20498;-71
2022/11/10 09:49:40;;;;;;;16.63;9.87;;;15.60;99.90;;;;;;5091893;28;20459;-70
2022/11/10 09:52:08;;;;;;;14.27;6.77;;;15.70;99.90;;;;;;5074745;28;20462;-71
2022/11/10 09:54:42;;;;;;;14.37;6.90;;;15.90;99.90;;;;;;5074595;28;20460;-70
2022/11/10 09:57:12;;;;;;;15.50;7.00;;;16.00;99.90;;;;;;5091663;28;20934;-70
2022/11/10 09:59:40;;;;;;;13.37;6.70;;;16.10;99.90;;;;;;5094432;28;20476;-71
2022/11/10 10:02:19;;;;;;;16.90;7.20;;;16.30;99.90;;;;;;5094435;28;20451;-71
2022/11/10 10:05:03;;;;;;;14.93;6.17;;;16.50;99.90;;;;;;5094831;28;20443;-71
2022/11/10 10:07:41;;;;;;;9.47;6.10;;;16.60;99.90;;;;;;5094088;28;20429;-70
2022/11/10 10:10:14;;;;;;;8.83;6.00;;;16.40;99.90;;;;;;5094682;28;20443;-71
2022/11/10 10:12:52;;;;;;;17.03;7.07;;;16.40;99.90;;;;;;5094340;28;20504;-71
2022/11/10 10:15:27;;;;;;;14.77;7.17;;;16.40;99.90;;;;;;5091063;28;20824;-71
2022/11/10 10:18:05;;;;;;;11.33;6.73;;;16.40;99.90;;;;;;5094591;28;20424;-71
2022/11/10 10:20:40;;;;;;;11.33;6.10;;;16.50;99.90;;;;;;5094246;28;20465;-70
2022/11/10 10:23:17;;;;;;;11.00;6.50;;;16.40;99.90;;;;;;5094434;28;20475;-71
2022/11/10 10:25:45;;;;;;;16.13;6.00;;;16.10;99.90;;;;;;5094132;28;20429;-71
2022/11/10 10:28:19;;;;;;;13.33;5.73;;;15.60;99.90;;;;;;5094275;28;20453;-70
2022/11/10 10:30:46;;;;;;;13.90;5.83;;;15.60;99.90;;;;;;5093756;28;20467;-70
2022/11/10 10:33:15;;;;;;;14.70;6.50;;;15.70;99.90;;;;;;5094163;28;20453;-70
2022/11/10 10:35:45;;;;;;;15.00;6.40;;;15.90;99.90;;;;;;5093944;28;20429;-70
2022/11/10 10:38:20;;;;;;;11.93;5.60;;;16.30;99.90;;;;;;5093939;28;20448;-70
2022/11/10 10:40:49;;;;;;;13.53;5.00;;;16.30;99.90;;;;;;5093734;28;20458;-70
2022/11/10 10:43:16;;;;;;;8.43;4.43;;;16.60;99.90;;;;;;5093505;28;20453;-70
2022/11/10 10:45:42;;;;;;;12.10;5.40;;;16.30;99.90;;;;;;5094115;28;20422;-70
2022/11/10 10:48:25;;;;;;;11.23;5.40;;;16.20;99.90;;;;;;5094382;28;20447;-70
2022/11/10 10:50:53;;;;;;;9.50;4.50;;;16.00;99.90;;;;;;5094132;28;20429;-70
2022/11/10 10:53:22;;;;;;;16.67;5.30;;;15.70;99.90;;;;;;5093577;28;20446;-70
2022/11/10 10:55:58;;;;;;;16.07;5.50;;;15.50;99.90;;;;;;5093341;28;20459;-70
2022/11/10 10:58:27;;;;;;;11.03;4.93;;;15.20;99.90;;;;;;5091175;28;20430;-71
2022/11/10 11:01:00;;;;;;;8.47;4.57;;;15.10;99.90;;;;;;5087152;28;20475;-71
2022/11/10 11:03:29;;;;;;;9.70;4.30;;;15.20;99.90;;;;;;5088690;28;20463;-70
2022/11/10 11:06:07;;;;;;;17.77;5.30;;;15.30;99.90;;;;;;5088923;28;20444;-70
2022/11/10 11:08:34;;;;;;;10.87;4.67;;;15.40;99.90;;;;;;5088860;28;20458;-70
2022/11/10 11:11:09;;;;;;;12.83;4.63;;;15.60;99.90;;;;;;5088364;28;20460;-70
2022/11/10 11:13:36;;;;;;;12.73;4.40;;;15.70;99.90;;;;;;5088260;28;20516;-71
2022/11/10 11:16:06;;;;;;;13.40;4.30;;;16.10;99.90;;;;;;5087879;28;20877;-70
2022/11/10 11:18:33;;;;;;;15.00;4.37;;;16.60;99.90;;;;;;5089681;28;20451;-71
2022/11/10 11:21:07;;;;;;;8.97;4.83;;;17.00;99.90;;;;;;5087489;28;20487;-70
2022/11/10 11:23:50;;;;;;;10.90;4.40;;;17.10;99.90;;;;;;5088280;28;20480;-70
2022/11/10 11:26:22;;;;;;;9.93;4.97;;;17.00;99.90;;;;;;5088374;28;20956;-71
2022/11/10 11:29:00;;;;;;;12.97;5.20;;;16.90;99.90;;;;;;5087885;28;20538;-70
2022/11/10 11:31:39;;;;;;;10.60;4.57;;;17.00;99.90;;;;;;5088033;28;21025;-70
2022/11/10 11:34:14;;;;;;;13.73;4.87;;;17.10;99.90;;;;;;5088177;28;20471;-70
2022/11/10 11:36:51;;;;;;;13.00;4.50;;;17.00;99.90;;;;;;5088070;28;20454;-70
2022/11/10 11:39:31;;;;;;;11.63;4.87;;;16.90;99.90;;;;;;5088455;28;20450;-71
2022/11/10 11:42:05;;;;;;;10.00;4.83;;;16.60;99.90;;;;;;5087161;28;20422;-71
2022/11/10 11:44:49;;;;;;;13.77;5.57;;;16.80;99.90;;;;;;5088683;28;20426;-71
2022/11/10 11:47:27;;;;;;;12.00;5.10;;;17.00;99.90;;;;;;5087322;28;20789;-71
2022/11/10 11:50:04;;;;;;;12.80;5.30;;;16.90;99.90;;;;;;5088127;28;20425;-71
2022/11/10 11:52:37;;;;;;;8.83;3.93;;;16.70;99.90;;;;;;5087954;28;20441;-71
2022/11/10 11:55:18;;;;;;;9.47;4.00;;;16.70;99.90;;;;;;5087318;28;21193;-71
2022/11/10 11:57:55;;;;;;;12.97;4.30;;;17.00;99.90;;;;;;5087406;28;20449;-71
2022/11/10 12:00:22;;;;;;;22.37;4.43;;;17.10;99.90;;;;;;5087537;28;20457;-71
2022/11/10 12:03:19;;;;;;;11.70;4.60;;;17.20;99.90;;;;;;5086859;28;20855;-71
2022/11/10 12:06:02;;;;;;;9.37;4.30;;;17.20;99.90;;;;;;5087477;28;20422;-70
2022/11/10 12:08:39;;;;;;;10.90;4.20;;;17.40;99.90;;;;;;5087591;28;20406;-70
2022/11/10 12:11:14;;;;;;;8.00;4.37;;;17.50;99.90;;;;;;5087555;28;20446;-70
2022/11/10 12:13:55;;;;;;;18.00;4.10;;;17.50;99.90;;;;;;5087397;28;20441;-70
2022/11/10 12:16:27;;;;;;;9.20;4.17;;;17.40;99.90;;;;;;5086179;28;21028;-70
2022/11/10 12:19:04;;;;;;;12.60;4.10;;;17.40;99.90;;;;;;5088568;28;20775;-70
2022/11/10 12:21:42;;;;;;;12.50;3.83;;;17.50;99.90;;;;;;5086586;28;20421;-70
2022/11/10 12:24:26;;;;;;;12.77;4.40;;;17.80;99.90;;;;;;5087261;28;20489;-70
2022/11/10 12:26:56;;;;;;;18.07;4.07;;;18.20;99.90;;;;;;5087157;28;20443;-70
2022/11/10 12:29:30;;;;;;;12.20;3.90;;;18.60;99.90;;;;;;5086651;28;20422;-70
2022/11/10 12:32:02;;;;;;;5.33;2.13;;;18.90;99.90;;;;;;5086123;28;20443;-70
2022/11/10 12:34:36;;;;;;;13.60;2.70;;;19.10;99.90;;;;;;5087042;28;20455;-71
2022/11/10 12:37:06;;;;;;;6.37;2.20;;;19.00;99.90;;;;;;5086747;28;20814;-70
2022/11/10 12:39:44;;;;;;;12.03;3.07;;;18.60;99.90;;;;;;5084877;28;20511;-69
2022/11/10 12:42:15;;;;;;;8.07;2.47;;;18.60;99.90;;;;;;5086643;28;20433;-69
2022/11/10 12:44:58;;;;;;;8.57;2.13;;;18.80;99.90;;;;;;5087313;28;20460;-69
2022/11/10 12:47:29;;;;;;;7.20;2.30;;;18.90;99.90;;;;;;5086485;28;20926;-69
2022/11/10 12:50:03;;;;;;;8.83;2.53;;;18.70;99.90;;;;;;5087032;28;21142;-69
2022/11/10 12:52:35;;;;;;;8.67;2.30;;;18.60;99.90;;;;;;5087722;28;20470;-70
2022/11/10 12:55:04;;;;;;;15.43;3.17;;;18.40;99.90;;;;;;5087358;28;20982;-69
2022/11/10 12:57:32;;;;;;;6.40;2.90;;;18.10;99.90;;;;;;5087460;28;20513;-69
2022/11/10 13:00:02;;;;;;;10.20;2.60;;;18.10;99.90;;;;;;5086345;28;20491;-69
2022/11/10 13:02:32;;;;;;;7.80;2.33;;;18.20;99.90;;;;;;5086741;28;20459;-69
2022/11/10 13:05:24;;;;;;;10.70;2.63;;;17.80;99.90;;;;;;5087342;28;20460;-69
2022/11/10 13:08:12;;;;;;;9.13;2.50;;;17.90;99.90;;;;;;5086342;28;21033;-69
2022/11/10 13:10:50;;;;;;;11.87;2.57;;;17.90;99.90;;;;;;5086287;28;20410;-69